createdAt,value
2022-10-09T00:01:00.365Z,998.7
2022-10-09T00:03:13.040Z,998.7
2022-10-09T00:04:19.361Z,998.7
2022-10-09T00:06:32.043Z,998.7
2022-10-09T00:07:38.354Z,998.8
2022-10-09T00:09:51.032Z,998.8
2022-10-09T00:11:06.609Z,998.8
2022-10-09T00:12:22.192Z,998.8
2022-10-09T00:13:37.800Z,998.8
2022-10-09T00:14:53.368Z,998.8
2022-10-09T00:16:08.957Z,998.8
2022-10-09T00:17:33.788Z,998.8
2022-10-09T00:18:49.373Z,998.8
2022-10-09T00:20:14.239Z,998.8
2022-10-09T00:21:39.063Z,998.8
2022-10-09T00:23:03.906Z,998.8
2022-10-09T00:24:19.482Z,998.8
2022-10-09T00:25:35.079Z,998.8
2022-10-09T00:26:50.676Z,998.8
2022-10-09T00:28:15.549Z,998.8
2022-10-09T00:29:22.031Z,998.7
2022-10-09T00:30:46.724Z,998.7
2022-10-09T00:32:02.345Z,998.7
2022-10-09T00:33:08.682Z,998.7
2022-10-09T00:34:15.018Z,998.7
2022-10-09T00:35:21.337Z,998.7
2022-10-09T00:36:27.670Z,998.7
2022-10-09T00:37:34.011Z,998.8
2022-10-09T00:38:40.344Z,998.8
2022-10-09T00:39:46.657Z,998.8
2022-10-09T00:40:53.095Z,998.8
2022-10-09T00:41:59.317Z,998.8
2022-10-09T00:43:05.690Z,998.8
2022-10-09T00:44:11.985Z,998.8
2022-10-09T00:45:18.356Z,998.8
2022-10-09T00:46:24.740Z,998.8
2022-10-09T00:47:30.995Z,998.8
2022-10-09T00:48:37.328Z,998.8
2022-10-09T00:49:43.662Z,998.8
2022-10-09T00:50:49.982Z,998.8
2022-10-09T00:51:56.330Z,998.8
2022-10-09T00:53:02.653Z,998.8
2022-10-09T00:54:08.993Z,998.8
2022-10-09T00:55:15.313Z,998.8
2022-10-09T00:56:21.643Z,998.8
2022-10-09T00:57:28.460Z,998.8
2022-10-09T00:58:34.798Z,998.8
2022-10-09T00:59:41.125Z,998.8
2022-10-09T01:00:47.580Z,998.8
2022-10-09T01:01:53.860Z,998.8
2022-10-09T01:03:00.129Z,998.8
2022-10-09T01:04:06.520Z,998.8
2022-10-09T01:06:19.113Z,998.8
2022-10-09T01:08:31.796Z,998.8
2022-10-09T01:09:38.104Z,998.8
2022-10-09T01:10:44.449Z,998.8
2022-10-09T01:11:50.780Z,998.8
2022-10-09T01:12:57.105Z,998.8
2022-10-09T01:14:03.449Z,998.8
2022-10-09T01:15:09.811Z,998.8
2022-10-09T01:16:19.271Z,998.8
2022-10-09T01:17:22.455Z,998.8
2022-10-09T01:19:35.121Z,998.8
2022-10-09T01:20:50.682Z,998.8
2022-10-09T01:22:15.541Z,998.8
2022-10-09T01:23:21.854Z,998.9
2022-10-09T01:24:37.463Z,998.9
2022-10-09T01:25:53.048Z,998.9
2022-10-09T01:27:08.639Z,998.9
2022-10-09T01:28:24.387Z,998.9
2022-10-09T01:29:30.555Z,998.9
2022-10-09T01:30:36.909Z,998.9
2022-10-09T01:31:43.239Z,998.9
2022-10-09T01:32:49.905Z,998.9
2022-10-09T01:33:55.870Z,998.9
2022-10-09T01:35:02.236Z,998.9
2022-10-09T01:36:08.638Z,998.9
2022-10-09T01:37:14.853Z,998.9
2022-10-09T01:38:21.212Z,998.9
2022-10-09T01:39:27.528Z,998.9
2022-10-09T01:41:40.289Z,998.9
2022-10-09T01:42:46.882Z,998.9
2022-10-09T01:43:52.885Z,998.9
2022-10-09T01:44:59.201Z,998.9
2022-10-09T01:47:11.884Z,998.9
2022-10-09T01:48:27.436Z,998.9
2022-10-09T01:49:43.037Z,999
2022-10-09T01:51:07.874Z,999
2022-10-09T01:52:14.201Z,999
2022-10-09T01:53:29.794Z,999
2022-10-09T01:54:45.381Z,999
2022-10-09T01:56:01.216Z,999
2022-10-09T01:57:26.107Z,999
2022-10-09T01:58:32.840Z,999
2022-10-09T01:59:39.175Z,999
2022-10-09T02:00:45.502Z,999
2022-10-09T02:01:51.965Z,999
2022-10-09T02:02:58.250Z,999
2022-10-09T02:04:04.498Z,999
2022-10-09T02:05:10.953Z,999
2022-10-09T02:06:17.272Z,999
2022-10-09T02:07:23.583Z,999.1
2022-10-09T02:08:29.910Z,999.1
2022-10-09T02:09:36.261Z,999
2022-10-09T02:10:42.575Z,999.1
2022-10-09T02:11:48.934Z,999.1
2022-10-09T02:12:55.249Z,999.1
2022-10-09T02:14:01.579Z,999.1
2022-10-09T02:15:07.910Z,999.1
2022-10-09T02:16:14.300Z,999.1
2022-10-09T02:17:20.585Z,999.1
2022-10-09T02:18:26.931Z,999.1
2022-10-09T02:19:33.241Z,999.1
2022-10-09T02:21:46.498Z,999.1
2022-10-09T02:22:52.237Z,999.1
2022-10-09T02:23:58.554Z,999.1
2022-10-09T02:25:04.886Z,999.1
2022-10-09T02:26:11.233Z,999.1
2022-10-09T02:27:17.569Z,999.1
2022-10-09T02:28:24.005Z,999.1
2022-10-09T02:29:30.226Z,999.1
2022-10-09T02:30:37.053Z,999.1
2022-10-09T02:31:43.376Z,999.1
2022-10-09T02:32:49.858Z,999.1
2022-10-09T02:33:56.073Z,999.1
2022-10-09T02:35:02.389Z,999.2
2022-10-09T02:36:08.771Z,999.2
2022-10-09T02:37:15.049Z,999.2
2022-10-09T02:38:21.370Z,999.2
2022-10-09T02:39:27.702Z,999.2
2022-10-09T02:40:34.029Z,999.2
2022-10-09T02:41:40.382Z,999.2
2022-10-09T02:42:46.999Z,999.2
2022-10-09T02:43:53.035Z,999.3
2022-10-09T02:44:59.358Z,999.3
2022-10-09T02:46:05.735Z,999.3
2022-10-09T02:47:12.032Z,999.3
2022-10-09T02:48:18.348Z,999.3
2022-10-09T02:49:24.725Z,999.3
2022-10-09T02:50:31.025Z,999.3
2022-10-09T02:51:37.361Z,999.3
2022-10-09T02:54:56.337Z,999.3
2022-10-09T02:56:02.687Z,999.3
2022-10-09T02:57:09.022Z,999.3
2022-10-09T02:58:15.351Z,999.3
2022-10-09T02:59:21.684Z,999.3
2022-10-09T03:00:28.017Z,999.3
2022-10-09T03:01:34.525Z,999.3
2022-10-09T03:02:41.102Z,999.3
2022-10-09T03:03:47.304Z,999.3
2022-10-09T03:04:53.657Z,999.3
2022-10-09T03:05:59.963Z,999.3
2022-10-09T03:07:06.293Z,999.3
2022-10-09T03:08:12.632Z,999.3
2022-10-09T03:10:25.307Z,999.3
2022-10-09T03:13:05.730Z,999.4
2022-10-09T03:14:12.047Z,999.4
2022-10-09T03:15:27.636Z,999.4
2022-10-09T03:16:52.508Z,999.4
2022-10-09T03:17:58.827Z,999.4
2022-10-09T03:19:14.425Z,999.4
2022-10-09T03:21:45.727Z,999.4
2022-10-09T03:22:51.995Z,999.5
2022-10-09T03:23:58.250Z,999.5
2022-10-09T03:25:04.677Z,999.5
2022-10-09T03:26:11.013Z,999.5
2022-10-09T03:27:17.340Z,999.5
2022-10-09T03:28:23.722Z,999.5
2022-10-09T03:29:29.998Z,999.5
2022-10-09T03:31:58.199Z,999.5
2022-10-09T03:32:49.203Z,999.5
2022-10-09T03:33:55.319Z,999.5
2022-10-09T03:35:01.667Z,999.5
2022-10-09T03:36:08.114Z,999.5
2022-10-09T03:37:14.340Z,999.5
2022-10-09T03:38:20.663Z,999.5
2022-10-09T03:39:27.014Z,999.6
2022-10-09T03:40:33.316Z,999.6
2022-10-09T03:41:39.658Z,999.6
2022-10-09T03:42:46.147Z,999.6
2022-10-09T03:43:52.321Z,999.6
2022-10-09T03:44:58.657Z,999.6
2022-10-09T03:46:04.997Z,999.6
2022-10-09T03:47:11.317Z,999.6
2022-10-09T03:48:17.693Z,999.6
2022-10-09T03:49:23.993Z,999.7
2022-10-09T03:50:30.329Z,999.7
2022-10-09T03:51:36.706Z,999.7
2022-10-09T03:52:43.006Z,999.7
2022-10-09T03:53:49.327Z,999.7
2022-10-09T03:54:55.662Z,999.7
2022-10-09T03:56:02.017Z,999.7
2022-10-09T03:57:08.625Z,999.7
2022-10-09T03:58:14.948Z,999.7
2022-10-09T03:59:21.265Z,999.7
2022-10-09T04:00:27.610Z,999.7
2022-10-09T04:01:33.940Z,999.7
2022-10-09T04:02:40.307Z,999.7
2022-10-09T04:04:52.943Z,999.7
2022-10-09T04:05:59.277Z,999.7
2022-10-09T04:07:05.597Z,999.7
2022-10-09T04:08:11.991Z,999.7
2022-10-09T04:09:18.253Z,999.7
2022-10-09T04:10:24.628Z,999.7
2022-10-09T04:11:30.915Z,999.8
2022-10-09T04:12:37.295Z,999.8
2022-10-09T04:13:43.597Z,999.7
2022-10-09T04:14:49.912Z,999.7
2022-10-09T04:15:56.325Z,999.7
2022-10-09T04:17:02.597Z,999.7
2022-10-09T04:18:08.921Z,999.7
2022-10-09T04:19:15.258Z,999.7
2022-10-09T04:22:34.257Z,999.7
2022-10-09T04:23:49.968Z,999.8
2022-10-09T04:25:05.412Z,999.8
2022-10-09T04:26:21.002Z,999.8
2022-10-09T04:27:36.574Z,999.8
2022-10-09T04:28:52.175Z,999.8
2022-10-09T04:30:07.766Z,999.8
2022-10-09T04:31:23.409Z,999.8
2022-10-09T04:33:54.518Z,999.8
2022-10-09T04:35:00.882Z,999.8
2022-10-09T04:36:07.183Z,999.8
2022-10-09T04:37:13.511Z,999.8
2022-10-09T04:38:19.844Z,999.8
2022-10-09T04:39:26.224Z,999.8
2022-10-09T04:41:38.846Z,999.8
2022-10-09T04:42:45.178Z,999.8
2022-10-09T04:43:51.507Z,999.8
2022-10-09T04:44:57.827Z,999.8
2022-10-09T04:46:04.234Z,999.8
2022-10-09T04:47:11.488Z,999.8
2022-10-09T04:49:23.263Z,999.8
2022-10-09T04:50:38.766Z,999.8
2022-10-09T04:51:54.374Z,999.8
2022-10-09T04:53:09.924Z,999.8
2022-10-09T04:54:25.519Z,999.8
2022-10-09T04:55:41.390Z,999.8
2022-10-09T04:57:06.197Z,999.8
2022-10-09T04:59:19.319Z,999.8
2022-10-09T05:00:25.658Z,999.8
2022-10-09T05:01:37.181Z,999.8
2022-10-09T05:02:38.353Z,999.8
2022-10-09T05:04:51.067Z,999.8
2022-10-09T05:05:57.393Z,999.8
2022-10-09T05:07:03.732Z,999.8
2022-10-09T05:08:10.060Z,999.8
2022-10-09T05:10:22.712Z,999.8
2022-10-09T05:11:42.429Z,999.8
2022-10-09T05:12:53.887Z,999.8
2022-10-09T05:14:09.487Z,999.8
2022-10-09T05:15:25.080Z,999.8
2022-10-09T05:17:01.259Z,999.8
2022-10-09T05:18:05.493Z,999.9
2022-10-09T05:19:11.828Z,999.9
2022-10-09T05:20:18.170Z,999.9
2022-10-09T05:21:24.500Z,999.9
2022-10-09T05:22:30.823Z,999.9
2022-10-09T05:23:37.152Z,1000
2022-10-09T05:25:49.835Z,1000
2022-10-09T05:26:56.290Z,1000
2022-10-09T05:28:02.696Z,1000
2022-10-09T05:29:08.820Z,1000
2022-10-09T05:30:15.152Z,1000
2022-10-09T05:31:21.581Z,1000.1
2022-10-09T05:32:27.814Z,1000.1
2022-10-09T05:33:34.186Z,1000.1
2022-10-09T05:34:40.491Z,1000.1
2022-10-09T05:35:46.812Z,1000.1
2022-10-09T05:36:53.156Z,1000.1
2022-10-09T05:37:59.482Z,1000.1
2022-10-09T05:39:05.813Z,1000.2
2022-10-09T05:41:18.496Z,1000.2
2022-10-09T05:42:24.837Z,1000.2
2022-10-09T05:43:31.297Z,1000.2
2022-10-09T05:44:37.619Z,1000.2
2022-10-09T05:45:44.020Z,1000.2
2022-10-09T05:46:50.290Z,1000.1
2022-10-09T05:47:56.621Z,1000.1
2022-10-09T05:49:02.965Z,1000.1
2022-10-09T05:50:09.276Z,1000.1
2022-10-09T05:51:15.634Z,1000.1
2022-10-09T05:52:21.947Z,1000.1
2022-10-09T05:53:28.272Z,1000.1
2022-10-09T05:54:34.604Z,1000.1
2022-10-09T05:55:40.949Z,1000.1
2022-10-09T05:56:47.277Z,1000.1
2022-10-09T05:57:53.622Z,1000.1
2022-10-09T05:58:59.939Z,1000.2
2022-10-09T06:00:06.267Z,1000.1
2022-10-09T06:01:12.653Z,1000.1
2022-10-09T06:02:18.971Z,1000.2
2022-10-09T06:04:31.601Z,1000.2
2022-10-09T06:05:37.933Z,1000.2
2022-10-09T06:06:44.272Z,1000.2
2022-10-09T06:07:50.590Z,1000.2
2022-10-09T06:10:03.263Z,1000.2
2022-10-09T06:11:09.586Z,1000.2
2022-10-09T06:13:22.272Z,1000.2
2022-10-09T06:14:37.822Z,1000.2
2022-10-09T06:15:53.426Z,1000.2
2022-10-09T06:17:09.052Z,1000.2
2022-10-09T06:18:24.600Z,1000.2
2022-10-09T06:19:40.499Z,1000.2
2022-10-09T06:21:05.344Z,1000.2
2022-10-09T06:22:12.162Z,1000.3
2022-10-09T06:24:28.572Z,1000.3
2022-10-09T06:25:31.175Z,1000.3
2022-10-09T06:26:37.508Z,1000.3
2022-10-09T06:27:43.886Z,1000.3
2022-10-09T06:28:50.362Z,1000.3
2022-10-09T06:29:56.575Z,1000.3
2022-10-09T06:31:02.954Z,1000.3
2022-10-09T06:32:09.243Z,1000.3
2022-10-09T06:33:15.555Z,1000.4
2022-10-09T06:34:21.902Z,1000.4
2022-10-09T06:35:28.214Z,1000.4
2022-10-09T06:36:34.564Z,1000.4
2022-10-09T06:37:40.890Z,1000.4
2022-10-09T06:38:47.277Z,1000.4
2022-10-09T06:39:53.552Z,1000.4
2022-10-09T06:40:59.874Z,1000.4
2022-10-09T06:42:06.225Z,1000.5
2022-10-09T06:43:12.549Z,1000.4
2022-10-09T06:44:18.914Z,1000.4
2022-10-09T06:45:25.215Z,1000.4
2022-10-09T06:46:31.673Z,1000.4
2022-10-09T06:47:37.891Z,1000.4
2022-10-09T06:48:44.217Z,1000.4
2022-10-09T06:49:50.543Z,1000.4
2022-10-09T06:50:56.879Z,1000.5
2022-10-09T06:53:09.538Z,1000.5
2022-10-09T06:54:16.235Z,1000.5
2022-10-09T06:55:26.439Z,1000.5
2022-10-09T06:57:35.183Z,1000.5
2022-10-09T06:58:41.514Z,1000.5
2022-10-09T06:59:47.868Z,1000.5
2022-10-09T07:00:54.300Z,1000.5
2022-10-09T07:02:00.758Z,1000.5
2022-10-09T07:03:06.995Z,1000.6
2022-10-09T07:04:13.305Z,1000.6
2022-10-09T07:05:19.629Z,1000.6
2022-10-09T07:06:25.990Z,1000.6
2022-10-09T07:07:32.289Z,1000.6
2022-10-09T07:08:38.621Z,1000.6
2022-10-09T07:09:44.988Z,1000.6
2022-10-09T07:10:51.303Z,1000.5
2022-10-09T07:11:57.625Z,1000.5
2022-10-09T07:13:03.968Z,1000.5
2022-10-09T07:14:10.305Z,1000.6
2022-10-09T07:16:23.118Z,1000.6
2022-10-09T07:17:29.278Z,1000.6
2022-10-09T07:19:41.948Z,1000.6
2022-10-09T07:20:57.521Z,1000.6
2022-10-09T07:22:13.112Z,1000.7
2022-10-09T07:23:28.694Z,1000.7
2022-10-09T07:24:44.294Z,1000.7
2022-10-09T07:25:59.895Z,1000.7
2022-10-09T07:27:24.803Z,1000.7
2022-10-09T07:28:31.099Z,1000.7
2022-10-09T07:29:37.400Z,1000.7
2022-10-09T07:30:43.764Z,1000.8
2022-10-09T07:31:50.077Z,1000.8
2022-10-09T07:32:56.382Z,1000.8
2022-10-09T07:34:02.711Z,1000.8
2022-10-09T07:35:09.076Z,1000.8
2022-10-09T07:36:15.393Z,1000.8
2022-10-09T07:37:21.728Z,1000.8
2022-10-09T07:38:28.029Z,1000.8
2022-10-09T07:39:34.587Z,1000.8
2022-10-09T07:40:40.914Z,1000.8
2022-10-09T07:41:47.255Z,1000.8
2022-10-09T07:45:06.237Z,1000.8
2022-10-09T07:47:18.944Z,1000.8
2022-10-09T07:48:34.478Z,1000.8
2022-10-09T07:49:50.056Z,1000.8
2022-10-09T07:51:05.646Z,1000.8
2022-10-09T07:52:21.245Z,1000.9
2022-10-09T07:53:36.824Z,1000.9
2022-10-09T07:55:01.737Z,1000.9
2022-10-09T07:56:08.021Z,1000.9
2022-10-09T07:57:14.341Z,1000.9
2022-10-09T07:58:20.659Z,1000.8
2022-10-09T07:59:27.015Z,1000.8
2022-10-09T08:00:33.338Z,1000.9
2022-10-09T08:01:39.726Z,1000.8
2022-10-09T08:02:46.152Z,1000.8
2022-10-09T08:03:52.315Z,1000.8
2022-10-09T08:04:58.657Z,1000.8
2022-10-09T08:06:05.003Z,1000.8
2022-10-09T08:07:11.339Z,1000.8
2022-10-09T08:08:17.650Z,1000.8
2022-10-09T08:09:24.001Z,1000.8
2022-10-09T08:10:30.329Z,1000.8
2022-10-09T08:11:36.663Z,1000.8
2022-10-09T08:12:43.004Z,1000.8
2022-10-09T08:13:49.315Z,1000.8
2022-10-09T08:14:55.652Z,1000.8
2022-10-09T08:16:02.024Z,1000.8
2022-10-09T08:17:08.307Z,1000.8
2022-10-09T08:18:14.672Z,1000.8
2022-10-09T08:19:20.994Z,1000.8
2022-10-09T08:20:27.324Z,1000.8
2022-10-09T08:21:33.665Z,1000.8
2022-10-09T08:22:40.003Z,1000.8
2022-10-09T08:23:46.302Z,1000.8
2022-10-09T08:24:52.699Z,1000.8
2022-10-09T08:25:59.040Z,1000.8
2022-10-09T08:27:05.357Z,1000.8
2022-10-09T08:28:11.819Z,1000.8
2022-10-09T08:29:18.010Z,1000.8
2022-10-09T08:30:24.364Z,1000.8
2022-10-09T08:31:30.769Z,1000.8
2022-10-09T08:32:46.547Z,1000.8
2022-10-09T08:33:52.637Z,1000.8
2022-10-09T08:34:59.034Z,1000.8
2022-10-09T08:36:05.406Z,1000.8
2022-10-09T08:37:11.756Z,1000.8
2022-10-09T08:38:37.832Z,1000.8
2022-10-09T08:39:24.408Z,1000.8
2022-10-09T08:40:30.728Z,1000.8
2022-10-09T08:41:37.081Z,1000.8
2022-10-09T08:42:43.408Z,1000.8
2022-10-09T08:43:49.723Z,1000.8
2022-10-09T08:44:56.060Z,1000.8
2022-10-09T08:46:02.442Z,1000.8
2022-10-09T08:47:08.733Z,1000.8
2022-10-09T08:48:15.070Z,1000.8
2022-10-09T08:49:21.421Z,1000.8
2022-10-09T08:50:27.724Z,1000.8
2022-10-09T08:51:34.055Z,1000.8
2022-10-09T08:53:46.728Z,1000.8
2022-10-09T08:54:53.057Z,1000.8
2022-10-09T08:55:59.410Z,1000.8
2022-10-09T08:57:05.732Z,1000.8
2022-10-09T08:59:18.423Z,1000.8
2022-10-09T09:00:24.714Z,1000.8
2022-10-09T09:01:31.424Z,1000.8
2022-10-09T09:02:37.832Z,1000.8
2022-10-09T09:03:44.054Z,1000.8
2022-10-09T09:04:54.514Z,1000.8
2022-10-09T09:05:56.741Z,1000.8
2022-10-09T09:07:03.023Z,1000.8
2022-10-09T09:08:09.476Z,1000.8
2022-10-09T09:09:15.840Z,1000.8
2022-10-09T09:10:22.243Z,1000.8
2022-10-09T09:11:28.474Z,1000.8
2022-10-09T09:12:34.809Z,1000.8
2022-10-09T09:13:41.178Z,1000.8
2022-10-09T09:14:47.481Z,1000.8
2022-10-09T09:15:53.850Z,1000.8
2022-10-09T09:17:00.127Z,1000.8
2022-10-09T09:18:06.450Z,1000.8
2022-10-09T09:20:19.150Z,1000.8
2022-10-09T09:21:25.474Z,1000.8
2022-10-09T09:22:31.782Z,1000.8
2022-10-09T09:23:38.137Z,1000.8
2022-10-09T09:24:44.457Z,1000.8
2022-10-09T09:25:50.818Z,1000.8
2022-10-09T09:26:57.131Z,1000.8
2022-10-09T09:28:03.557Z,1000.8
2022-10-09T09:29:09.786Z,1000.7
2022-10-09T09:30:16.140Z,1000.7
2022-10-09T09:32:28.800Z,1000.7
2022-10-09T09:33:37.370Z,1000.7
2022-10-09T09:34:41.760Z,1000.7
2022-10-09T09:35:48.123Z,1000.7
2022-10-09T09:36:54.445Z,1000.7
2022-10-09T09:38:00.769Z,1000.6
2022-10-09T09:41:19.855Z,1000.6
2022-10-09T09:42:26.244Z,1000.6
2022-10-09T09:43:32.526Z,1000.6
2022-10-09T09:44:38.865Z,1000.6
2022-10-09T09:45:45.206Z,1000.6
2022-10-09T09:47:57.878Z,1000.5
2022-10-09T09:49:08.625Z,1000.5
2022-10-09T09:50:23.630Z,1000.5
2022-10-09T09:51:27.790Z,1000.5
2022-10-09T09:52:23.198Z,1000.5
2022-10-09T09:53:29.513Z,1000.5
2022-10-09T09:54:35.861Z,1000.5
2022-10-09T09:55:42.198Z,1000.4
2022-10-09T09:57:10.806Z,1000.4
2022-10-09T09:57:54.876Z,1000.4
2022-10-09T09:59:01.198Z,1000.4
2022-10-09T10:00:07.525Z,1000.4
2022-10-09T10:01:13.902Z,1000.4
2022-10-09T10:02:20.274Z,1000.4
2022-10-09T10:03:26.515Z,1000.4
2022-10-09T10:04:32.829Z,1000.4
2022-10-09T10:05:39.505Z,1000.4
2022-10-09T10:06:45.862Z,1000.4
2022-10-09T10:07:52.155Z,1000.4
2022-10-09T10:08:58.515Z,1000.4
2022-10-09T10:10:04.852Z,1000.4
2022-10-09T10:11:11.153Z,1000.4
2022-10-09T10:12:17.605Z,1000.4
2022-10-09T10:13:23.926Z,1000.4
2022-10-09T10:14:30.270Z,1000.4
2022-10-09T10:15:36.599Z,1000.4
2022-10-09T10:16:42.959Z,1000.4
2022-10-09T10:17:49.263Z,1000.4
2022-10-09T10:20:01.930Z,1000.4
2022-10-09T10:21:08.252Z,1000.3
2022-10-09T10:22:14.628Z,1000.3
2022-10-09T10:23:20.934Z,1000.3
2022-10-09T10:24:27.259Z,1000.3
2022-10-09T10:25:33.598Z,1000.3
2022-10-09T10:26:39.922Z,1000.3
2022-10-09T10:27:46.420Z,1000.3
2022-10-09T10:28:52.650Z,1000.3
2022-10-09T10:29:58.909Z,1000.3
2022-10-09T10:31:05.295Z,1000.3
2022-10-09T10:32:11.583Z,1000.3
2022-10-09T10:33:17.907Z,1000.3
2022-10-09T10:34:24.245Z,1000.3
2022-10-09T10:36:36.896Z,1000.2
2022-10-09T10:37:43.591Z,1000.2
2022-10-09T10:38:49.896Z,1000.2
2022-10-09T10:39:56.209Z,1000.2
2022-10-09T10:41:02.587Z,1000.2
2022-10-09T10:42:08.902Z,1000.2
2022-10-09T10:43:15.222Z,1000.2
2022-10-09T10:44:21.664Z,1000.1
2022-10-09T10:45:27.993Z,1000.1
2022-10-09T10:47:40.649Z,1000.1
2022-10-09T10:48:46.995Z,1000.1
2022-10-09T10:49:53.339Z,1000.1
2022-10-09T10:52:06.027Z,1000.1
2022-10-09T10:53:21.580Z,1000.1
2022-10-09T10:54:46.904Z,1000.1
2022-10-09T10:55:53.241Z,1000
2022-10-09T10:57:08.826Z,1000
2022-10-09T10:58:24.418Z,1000
2022-10-09T10:59:40.008Z,1000
2022-10-09T11:00:55.615Z,1000
2022-10-09T11:02:01.922Z,1000
2022-10-09T11:03:08.313Z,1000
2022-10-09T11:04:14.581Z,999.9
2022-10-09T11:05:20.935Z,999.9
2022-10-09T11:06:27.244Z,999.9
2022-10-09T11:07:33.566Z,999.9
2022-10-09T11:08:39.932Z,999.9
2022-10-09T11:09:46.265Z,999.9
2022-10-09T11:10:52.567Z,999.9
2022-10-09T11:11:58.914Z,999.9
2022-10-09T11:13:05.315Z,999.9
2022-10-09T11:14:11.582Z,999.9
2022-10-09T11:16:24.723Z,999.8
2022-10-09T11:18:37.304Z,999.8
2022-10-09T11:19:52.893Z,999.8
2022-10-09T11:21:08.446Z,999.8
2022-10-09T11:22:24.032Z,999.8
2022-10-09T11:23:39.619Z,999.7
2022-10-09T11:24:55.265Z,999.7
2022-10-09T11:27:26.756Z,999.6
2022-10-09T11:28:33.159Z,999.6
2022-10-09T11:30:46.030Z,999.6
2022-10-09T11:32:58.675Z,999.6
2022-10-09T11:34:05.079Z,999.5
2022-10-09T11:35:11.370Z,999.5
2022-10-09T11:36:17.696Z,999.5
2022-10-09T11:37:24.009Z,999.5
2022-10-09T11:38:30.352Z,999.5
2022-10-09T11:39:36.676Z,999.4
2022-10-09T11:40:52.285Z,999.4
2022-10-09T11:42:07.845Z,999.4
2022-10-09T11:43:32.697Z,999.4
2022-10-09T11:44:39.028Z,999.4
2022-10-09T11:45:54.680Z,999.4
2022-10-09T11:48:35.064Z,999.3
2022-10-09T11:49:59.890Z,999.3
2022-10-09T11:51:34.005Z,999.3
2022-10-09T11:52:40.324Z,999.3
2022-10-09T11:54:14.813Z,999.2
2022-10-09T11:55:30.397Z,999.2
2022-10-09T11:56:55.270Z,999.2
2022-10-09T11:58:29.340Z,999.1
2022-10-09T11:59:44.942Z,999.1
2022-10-09T12:01:00.574Z,999.1
2022-10-09T12:02:16.172Z,999.1
2022-10-09T12:03:31.692Z,999
2022-10-09T12:04:54.708Z,999
2022-10-09T12:06:02.890Z,999
2022-10-09T12:08:17.007Z,999
2022-10-09T12:09:21.848Z,999
2022-10-09T12:10:28.200Z,998.9
2022-10-09T12:11:43.794Z,998.9
2022-10-09T12:12:50.458Z,998.9
2022-10-09T12:16:09.319Z,998.9
2022-10-09T12:17:15.563Z,998.9
2022-10-09T12:18:21.879Z,998.9
2022-10-09T12:19:46.985Z,998.9
2022-10-09T12:20:53.324Z,998.9
2022-10-09T12:22:08.934Z,998.9
2022-10-09T12:23:26.982Z,998.9
2022-10-09T12:24:40.085Z,998.8
2022-10-09T12:25:55.670Z,998.8
2022-10-09T12:27:11.254Z,998.8
2022-10-09T12:28:27.025Z,998.8
2022-10-09T12:29:42.460Z,998.8
2022-10-09T12:31:07.387Z,998.7
2022-10-09T12:32:32.141Z,998.7
2022-10-09T12:33:56.983Z,998.7
2022-10-09T12:35:21.835Z,998.7
2022-10-09T12:36:56.048Z,998.6
2022-10-09T12:38:20.898Z,998.6
2022-10-09T12:39:27.259Z,998.6
2022-10-09T12:40:42.827Z,998.6
2022-10-09T12:41:58.489Z,998.6
2022-10-09T12:43:14.089Z,998.6
2022-10-09T12:45:45.251Z,998.5
2022-10-09T12:47:09.993Z,998.5
2022-10-09T12:48:34.856Z,998.5
2022-10-09T12:49:59.706Z,998.5
2022-10-09T12:51:24.575Z,998.5
2022-10-09T12:52:40.143Z,998.5
2022-10-09T12:54:04.974Z,998.5
2022-10-09T12:55:11.306Z,998.5
2022-10-09T12:57:42.887Z,998.4
2022-10-09T12:58:58.478Z,998.4
2022-10-09T13:00:14.510Z,998.4
2022-10-09T13:01:39.447Z,998.4
2022-10-09T13:02:45.872Z,998.4
2022-10-09T13:04:01.279Z,998.4
2022-10-09T13:05:16.896Z,998.4
2022-10-09T13:06:32.464Z,998.4
2022-10-09T13:07:57.305Z,998.3
2022-10-09T13:09:03.630Z,998.3
2022-10-09T13:10:19.232Z,998.3
2022-10-09T13:11:34.839Z,998.3
2022-10-09T13:12:59.648Z,998.2
2022-10-09T13:15:21.579Z,998.2
2022-10-09T13:16:37.259Z,998.2
2022-10-09T13:17:52.789Z,998.2
2022-10-09T13:19:08.343Z,998.2
2022-10-09T13:20:23.939Z,998.2
2022-10-09T13:21:39.531Z,998.2
2022-10-09T13:23:04.368Z,998.2
2022-10-09T13:24:10.912Z,998.2
2022-10-09T13:25:26.519Z,998.1
2022-10-09T13:27:58.121Z,998.1
2022-10-09T13:30:29.318Z,998.1
2022-10-09T13:31:54.137Z,998.1
2022-10-09T13:33:09.732Z,998.1
2022-10-09T13:34:16.055Z,998
2022-10-09T13:35:31.653Z,998
2022-10-09T13:36:47.241Z,998
2022-10-09T13:38:02.822Z,998
2022-10-09T13:39:18.417Z,998
2022-10-09T13:40:34.021Z,998
2022-10-09T13:41:49.598Z,998
2022-10-09T13:43:05.180Z,997.9
2022-10-09T13:44:30.052Z,997.9
2022-10-09T13:45:54.955Z,997.9
2022-10-09T13:47:10.468Z,997.9
2022-10-09T13:48:26.069Z,997.9
2022-10-09T13:49:41.636Z,997.9
2022-10-09T13:50:57.234Z,997.9
2022-10-09T13:52:03.551Z,997.9
2022-10-09T13:53:19.175Z,997.8
2022-10-09T13:54:43.995Z,997.8
2022-10-09T13:55:50.332Z,997.8
2022-10-09T13:57:05.895Z,997.8
2022-10-09T13:58:12.236Z,997.8
2022-10-09T13:59:18.585Z,997.8
2022-10-09T14:00:24.898Z,997.8
2022-10-09T14:01:31.280Z,997.8
2022-10-09T14:02:37.560Z,997.8
2022-10-09T14:03:43.913Z,997.8
2022-10-09T14:05:56.563Z,997.7
2022-10-09T14:07:12.145Z,997.7
2022-10-09T14:08:37.023Z,997.7
2022-10-09T14:10:11.129Z,997.7
2022-10-09T14:11:17.489Z,997.7
2022-10-09T14:12:42.297Z,997.7
2022-10-09T14:14:07.165Z,997.7
2022-10-09T14:15:41.246Z,997.7
2022-10-09T14:17:06.107Z,997.7
2022-10-09T14:18:12.435Z,997.7
2022-10-09T14:19:28.056Z,997.7
2022-10-09T14:20:43.599Z,997.6
2022-10-09T14:21:59.196Z,997.6
2022-10-09T14:23:14.754Z,997.6
2022-10-09T14:24:21.110Z,997.6
2022-10-09T14:25:27.435Z,997.6
2022-10-09T14:27:41.454Z,997.5
2022-10-09T14:28:46.480Z,997.5
2022-10-09T14:29:54.083Z,997.5
2022-10-09T14:30:59.119Z,997.5
2022-10-09T14:32:05.427Z,997.5
2022-10-09T14:35:24.465Z,997.4
2022-10-09T14:36:30.766Z,997.4
2022-10-09T14:37:46.343Z,997.4
2022-10-09T14:39:01.942Z,997.4
2022-10-09T14:41:36.883Z,997.4
2022-10-09T14:42:48.895Z,997.4
2022-10-09T14:44:04.681Z,997.4
2022-10-09T14:45:20.235Z,997.4
2022-10-09T14:46:35.832Z,997.4
2022-10-09T14:47:51.425Z,997.3
2022-10-09T14:49:16.340Z,997.3
2022-10-09T14:50:41.426Z,997.3
2022-10-09T14:52:06.249Z,997.3
2022-10-09T14:53:31.092Z,997.3
2022-10-09T14:55:05.180Z,997.3
2022-10-09T14:56:30.040Z,997.3
2022-10-09T14:57:36.409Z,997.3
2022-10-09T14:58:51.953Z,997.3
2022-10-09T15:00:07.578Z,997.3
2022-10-09T15:01:23.133Z,997.3
2022-10-09T15:02:48.018Z,997.3
2022-10-09T15:03:54.342Z,997.2
2022-10-09T15:05:19.170Z,997.3
2022-10-09T15:06:34.786Z,997.2
2022-10-09T15:07:41.104Z,997.2
2022-10-09T15:08:58.401Z,997.2
2022-10-09T15:10:12.278Z,997.2
2022-10-09T15:11:27.893Z,997.2
2022-10-09T15:12:43.440Z,997.2
2022-10-09T15:13:59.032Z,997.2
2022-10-09T15:15:23.875Z,997.2
2022-10-09T15:16:30.199Z,997.2
2022-10-09T15:19:01.870Z,997.1
2022-10-09T15:20:17.456Z,997.1
2022-10-09T15:21:42.371Z,997.1
2022-10-09T15:23:07.137Z,997.1
2022-10-09T15:24:50.498Z,997.1
2022-10-09T15:25:56.841Z,997.1
2022-10-09T15:27:30.938Z,997.1
2022-10-09T15:28:55.784Z,997.1
2022-10-09T15:30:11.371Z,997.1
2022-10-09T15:31:26.950Z,997.1
2022-10-09T15:32:42.545Z,997.1
2022-10-09T15:33:58.261Z,997.1
2022-10-09T15:35:23.108Z,997.1
2022-10-09T15:36:29.881Z,997.1
2022-10-09T15:37:45.497Z,997.1
2022-10-09T15:39:58.120Z,997.1
2022-10-09T15:41:04.737Z,997.1
2022-10-09T15:42:11.068Z,997.1
2022-10-09T15:43:17.393Z,997.1
2022-10-09T15:45:30.075Z,997.1
2022-10-09T15:47:50.692Z,997.1
2022-10-09T15:48:49.141Z,997.1
2022-10-09T15:49:55.487Z,997.1
2022-10-09T15:51:01.809Z,997.1
2022-10-09T15:52:17.654Z,997.1
2022-10-09T15:53:33.276Z,997.1
2022-10-09T15:54:49.300Z,997.1
2022-10-09T15:56:14.190Z,997.1
2022-10-09T15:57:20.490Z,997
2022-10-09T15:58:36.051Z,997.1
2022-10-09T15:59:51.636Z,997.1
2022-10-09T16:00:57.964Z,997.1
2022-10-09T16:02:04.297Z,997.1
2022-10-09T16:03:10.635Z,997.1
2022-10-09T16:06:29.616Z,997.1
2022-10-09T16:07:35.955Z,997.1
2022-10-09T16:09:48.645Z,997.1
2022-10-09T16:10:54.942Z,997.1
2022-10-09T16:12:01.289Z,997.1
2022-10-09T16:13:07.624Z,997.2
2022-10-09T16:14:23.194Z,997.2
2022-10-09T16:15:38.834Z,997.2
2022-10-09T16:16:54.359Z,997.2
2022-10-09T16:18:09.964Z,997.2